Time;durP1;ratioP1;P1;durP2;ratioP2;P2;SDS_P1;SDS_P2;PMS_P1;PMS_P2;Temp;Humidity;BMP_temperature;BMP_pressure;BME280_temperature;BME280_humidity;BME280_pressure;Samples;Min_cycle;Max_cycle;Signal;HPM_P1;HPM_P2
2022/04/18 00:01:49;;;;;;;1.30;1.00;;;13.10;38.60;;;;;;4901900;29;20467;-84
2022/04/18 00:04:15;;;;;;;1.30;0.93;;;13.10;38.80;;;;;;4888512;29;20027;-84
2022/04/18 00:06:40;;;;;;;1.30;1.00;;;13.00;39.00;;;;;;4915104;28;20025;-84
2022/04/18 00:09:06;;;;;;;1.53;0.90;;;12.90;39.00;;;;;;4893807;29;20416;-84
2022/04/18 00:11:33;;;;;;;1.45;1.00;;;12.90;39.30;;;;;;4869291;29;20427;-84
2022/04/18 00:13:58;;;;;;;0.98;0.90;;;12.80;39.50;;;;;;4894424;29;20079;-84
2022/04/18 00:16:25;;;;;;;1.37;0.90;;;12.80;39.50;;;;;;4890190;29;20103;-84
2022/04/18 00:18:51;;;;;;;1.33;1.00;;;12.70;39.70;;;;;;4884811;29;20058;-84
2022/04/18 00:21:17;;;;;;;1.05;0.80;;;12.60;40.00;;;;;;4901326;29;20749;-84
2022/04/18 00:23:43;;;;;;;1.15;0.90;;;12.50;40.20;;;;;;4906881;29;20048;-84
2022/04/18 00:26:09;;;;;;;0.80;0.80;;;12.50;40.50;;;;;;4893311;29;20025;-84
2022/04/18 00:28:35;;;;;;;0.80;0.73;;;12.40;40.40;;;;;;4899626;29;20520;-84
2022/04/18 00:31:00;;;;;;;0.83;0.83;;;12.30;40.60;;;;;;4861598;29;20532;-84
2022/04/18 00:33:26;;;;;;;0.90;0.80;;;12.20;40.60;;;;;;4881368;29;20293;-84
2022/04/18 00:35:52;;;;;;;1.13;0.80;;;12.20;40.80;;;;;;4894231;29;20036;-84
2022/04/18 00:38:18;;;;;;;2.00;0.80;;;12.10;41.00;;;;;;4869501;29;20298;-84
2022/04/18 00:40:44;;;;;;;1.30;0.90;;;12.00;41.30;;;;;;4895369;29;20052;-84
2022/04/18 00:43:10;;;;;;;1.25;0.80;;;12.00;41.30;;;;;;4885892;29;20116;-84
2022/04/18 00:45:36;;;;;;;0.87;0.67;;;11.90;41.60;;;;;;4864640;29;20387;-84
2022/04/18 00:48:03;;;;;;;1.95;0.80;;;11.80;41.80;;;;;;4911348;29;20039;-85
2022/04/18 00:50:31;;;;;;;1.13;0.70;;;11.70;42.10;;;;;;4871713;29;20281;-84
2022/04/18 00:52:57;;;;;;;1.13;0.90;;;11.70;42.30;;;;;;4890746;29;20398;-84
2022/04/18 00:55:25;;;;;;;1.00;0.80;;;11.60;42.10;;;;;;4879837;29;20024;-84
2022/04/18 00:57:52;;;;;;;1.00;0.70;;;11.60;42.20;;;;;;4883468;29;20334;-84
2022/04/18 01:00:18;;;;;;;1.42;0.80;;;11.50;42.20;;;;;;4906142;28;20032;-83
2022/04/18 01:02:44;;;;;;;1.27;0.73;;;11.50;42.30;;;;;;4908937;29;20023;-83
2022/04/18 01:05:10;;;;;;;1.27;0.70;;;11.50;42.40;;;;;;4901905;29;20060;-83
2022/04/18 01:07:36;;;;;;;0.70;0.70;;;11.50;42.50;;;;;;4887260;29;20250;-82
2022/04/18 01:10:07;;;;;;;0.95;0.80;;;11.40;42.50;;;;;;4898216;29;20095;-83
2022/04/18 01:12:36;;;;;;;1.17;0.77;;;11.40;42.90;;;;;;4892913;29;20174;-83
2022/04/18 01:15:02;;;;;;;0.88;0.80;;;11.40;42.60;;;;;;4920812;28;20095;-82
2022/04/18 01:17:28;;;;;;;0.70;0.70;;;11.30;43.20;;;;;;4879904;29;20032;-83
2022/04/18 01:19:53;;;;;;;0.80;0.80;;;11.30;42.70;;;;;;4896748;29;20101;-83
2022/04/18 01:22:19;;;;;;;1.10;0.80;;;11.30;42.60;;;;;;4883313;29;20046;-83
2022/04/18 01:30:15;;;;;;;1.05;0.68;;;11.20;42.60;;;;;;4903332;29;20493;-83
2022/04/18 01:32:41;;;;;;;0.70;0.70;;;11.10;43.40;;;;;;4880188;29;20654;-82
2022/04/18 01:35:07;;;;;;;1.25;0.80;;;11.10;42.80;;;;;;4894120;29;20051;-83
2022/04/18 01:37:32;;;;;;;0.70;0.70;;;11.00;43.00;;;;;;4904921;29;20024;-82
2022/04/18 01:39:58;;;;;;;1.00;0.80;;;10.90;43.00;;;;;;4878330;29;20408;-83
2022/04/18 01:42:24;;;;;;;1.00;0.90;;;10.90;43.10;;;;;;4881058;29;20254;-83
2022/04/18 01:44:51;;;;;;;0.85;0.73;;;10.80;43.20;;;;;;4881221;29;20107;-83
2022/04/18 01:47:17;;;;;;;1.20;0.80;;;10.70;43.30;;;;;;4858388;29;20032;-82
2022/04/18 01:49:43;;;;;;;0.90;0.80;;;10.70;43.50;;;;;;4908040;29;20031;-83
2022/04/18 01:52:08;;;;;;;0.73;0.73;;;10.70;43.70;;;;;;4871748;29;20032;-83
2022/04/18 01:54:34;;;;;;;1.00;0.70;;;10.60;43.80;;;;;;4868060;29;20283;-83
2022/04/18 01:57:00;;;;;;;0.70;0.70;;;10.50;43.90;;;;;;4898146;29;20517;-82
2022/04/18 01:59:25;;;;;;;1.43;0.90;;;10.50;43.90;;;;;;4891022;29;20266;-82
2022/04/18 02:01:51;;;;;;;1.23;0.90;;;10.40;43.90;;;;;;4887504;29;20027;-82
2022/04/18 02:04:17;;;;;;;0.80;0.77;;;10.40;44.00;;;;;;4877595;29;20032;-83
2022/04/18 02:06:42;;;;;;;1.38;0.85;;;10.30;44.80;;;;;;4876231;29;20512;-82
2022/04/18 02:09:08;;;;;;;1.47;0.90;;;10.30;44.00;;;;;;4871447;29;20123;-83
2022/04/18 02:11:33;;;;;;;0.90;0.80;;;10.30;44.20;;;;;;4898096;29;20050;-83
2022/04/18 02:13:59;;;;;;;1.15;0.82;;;10.30;44.30;;;;;;4879186;29;20027;-83
2022/04/18 02:16:28;;;;;;;0.73;0.60;;;10.20;44.30;;;;;;4885815;29;20308;-83
2022/04/18 02:18:54;;;;;;;1.00;0.80;;;10.20;44.50;;;;;;4888386;29;20042;-82
2022/04/18 02:21:20;;;;;;;1.20;0.80;;;10.20;44.60;;;;;;4882433;29;20099;-82
2022/04/18 02:23:46;;;;;;;1.10;0.80;;;10.10;44.70;;;;;;4873088;29;20130;-83
2022/04/18 02:26:11;;;;;;;0.93;0.75;;;10.10;44.70;;;;;;4874641;29;20444;-83
2022/04/18 02:28:37;;;;;;;0.88;0.80;;;10.00;44.70;;;;;;4924315;28;20613;-83
2022/04/18 02:31:03;;;;;;;1.07;0.80;;;10.00;44.70;;;;;;4896561;29;20028;-83
2022/04/18 02:33:29;;;;;;;1.83;0.80;;;10.00;44.80;;;;;;4882541;29;20043;-82
2022/04/18 02:35:54;;;;;;;0.87;0.70;;;9.90;45.00;;;;;;4862751;29;20040;-82
2022/04/18 02:38:20;;;;;;;1.63;0.75;;;9.90;45.00;;;;;;4868853;29;20020;-82
2022/04/18 02:40:46;;;;;;;1.03;0.80;;;9.80;45.00;;;;;;4897419;29;20379;-83
2022/04/18 02:43:12;;;;;;;1.20;0.80;;;9.80;45.10;;;;;;4880276;29;20083;-82
2022/04/18 02:45:38;;;;;;;1.10;0.80;;;9.70;45.40;;;;;;4905215;29;20355;-83
2022/04/18 02:48:04;;;;;;;1.45;0.80;;;9.60;45.40;;;;;;4895060;29;20456;-83
2022/04/18 02:50:30;;;;;;;0.80;0.80;;;9.60;45.50;;;;;;4874646;29;20763;-83
2022/04/18 02:52:56;;;;;;;1.10;0.80;;;9.50;45.60;;;;;;4883376;29;20032;-82
2022/04/18 02:55:22;;;;;;;1.10;0.90;;;9.50;45.70;;;;;;4878590;29;20039;-82
2022/04/18 02:57:48;;;;;;;0.73;0.70;;;9.50;45.90;;;;;;4896548;29;20028;-82
2022/04/18 03:00:15;;;;;;;0.85;0.80;;;9.40;46.00;;;;;;4908156;29;20343;-83
2022/04/18 03:02:41;;;;;;;0.90;0.80;;;9.40;46.00;;;;;;4897767;29;20028;-83
2022/04/18 03:05:09;;;;;;;1.17;0.90;;;9.40;46.10;;;;;;4916509;28;20720;-83
2022/04/18 03:07:35;;;;;;;1.13;0.90;;;9.30;46.30;;;;;;4863778;29;20040;-83
2022/04/18 03:10:01;;;;;;;1.10;0.80;;;9.30;46.30;;;;;;4889137;29;20102;-83
2022/04/18 03:12:27;;;;;;;1.10;0.90;;;9.20;46.40;;;;;;4871197;29;20032;-83
2022/04/18 03:14:52;;;;;;;1.27;0.90;;;9.20;46.60;;;;;;4926320;28;20537;-82
2022/04/18 03:17:19;;;;;;;1.30;0.90;;;9.10;46.70;;;;;;4879166;29;20119;-83
2022/04/18 03:19:44;;;;;;;1.20;1.00;;;9.00;46.90;;;;;;4879808;29;20032;-82
2022/04/18 03:22:10;;;;;;;1.23;1.00;;;9.00;47.00;;;;;;4878793;29;20441;-82
2022/04/18 03:24:36;;;;;;;1.23;0.90;;;8.90;47.20;;;;;;4896735;29;20190;-82
2022/04/18 03:27:02;;;;;;;0.87;0.80;;;8.90;47.20;;;;;;4890240;29;20095;-83
2022/04/18 03:29:29;;;;;;;0.83;0.80;;;8.80;47.30;;;;;;4890796;29;21072;-83
2022/04/18 03:31:55;;;;;;;1.17;0.90;;;8.80;47.40;;;;;;4904675;29;20031;-83
2022/04/18 03:34:21;;;;;;;1.38;0.85;;;8.80;47.50;;;;;;4878165;29;20020;-83
2022/04/18 03:39:50;;;;;;;2.28;1.10;;;8.80;47.80;;;;;;4900874;28;20155;-83
2022/04/18 03:42:16;;;;;;;1.00;0.90;;;8.70;47.60;;;;;;4903006;29;20047;-83
2022/04/18 03:44:44;;;;;;;1.05;0.95;;;8.70;47.70;;;;;;4923525;28;20481;-82
2022/04/18 03:47:11;;;;;;;1.20;0.93;;;8.70;47.90;;;;;;4893834;29;20036;-83
2022/04/18 03:49:38;;;;;;;0.80;0.80;;;8.60;47.90;;;;;;4912632;29;20081;-82
2022/04/18 03:52:04;;;;;;;1.08;0.85;;;8.60;47.90;;;;;;4870967;29;20356;-83
2022/04/18 03:54:29;;;;;;;1.30;0.97;;;8.60;48.00;;;;;;4878110;29;20126;-82
2022/04/18 03:56:55;;;;;;;1.10;1.00;;;8.60;48.10;;;;;;4870856;29;20486;-83
2022/04/18 03:59:20;;;;;;;1.33;1.00;;;8.60;48.20;;;;;;4882257;29;20032;-83
2022/04/18 04:01:46;;;;;;;1.02;0.93;;;8.50;48.30;;;;;;4878598;29;20985;-83
2022/04/18 04:04:12;;;;;;;1.10;1.00;;;8.50;48.40;;;;;;4890464;29;20770;-82
2022/04/18 04:06:37;;;;;;;1.10;1.00;;;8.50;48.60;;;;;;4891647;29;20119;-83
2022/04/18 04:09:03;;;;;;;1.13;1.00;;;8.40;48.50;;;;;;4867064;29;20319;-82
2022/04/18 04:11:29;;;;;;;1.17;1.03;;;8.40;48.70;;;;;;4883311;29;20056;-83
2022/04/18 04:13:55;;;;;;;1.30;0.80;;;8.30;48.80;;;;;;4872535;29;20067;-82
2022/04/18 04:16:21;;;;;;;1.10;1.00;;;8.30;48.70;;;;;;4876573;29;20032;-83
2022/04/18 04:18:49;;;;;;;0.90;0.80;;;8.30;48.80;;;;;;4892996;29;20548;-83
2022/04/18 04:21:15;;;;;;;1.20;0.90;;;8.30;48.90;;;;;;4890102;29;20021;-83
2022/04/18 04:23:41;;;;;;;1.45;1.00;;;8.30;48.80;;;;;;4868589;29;20032;-83
2022/04/18 04:26:07;;;;;;;1.15;0.93;;;8.20;49.00;;;;;;4874615;29;20040;-82
2022/04/18 04:28:34;;;;;;;1.20;0.93;;;8.20;49.10;;;;;;4880320;29;20352;-83
2022/04/18 04:31:00;;;;;;;1.00;0.90;;;8.20;49.20;;;;;;4878098;29;20028;-82
2022/04/18 04:33:26;;;;;;;1.48;0.93;;;8.20;49.20;;;;;;4874061;29;20055;-83
2022/04/18 04:35:51;;;;;;;1.40;0.90;;;8.10;49.30;;;;;;4892640;29;20036;-82
2022/04/18 04:38:17;;;;;;;1.20;0.90;;;8.10;49.40;;;;;;4897095;29;20683;-82
2022/04/18 04:40:44;;;;;;;1.33;1.10;;;8.00;49.30;;;;;;4871559;29;20127;-82
2022/04/18 04:43:10;;;;;;;1.20;1.00;;;8.00;49.50;;;;;;4873219;29;20047;-83
2022/04/18 04:45:35;;;;;;;1.00;0.90;;;7.90;49.50;;;;;;4885942;29;20186;-83
2022/04/18 04:48:01;;;;;;;1.63;1.00;;;7.90;49.60;;;;;;4894773;29;20032;-83
2022/04/18 04:50:27;;;;;;;1.42;0.90;;;7.90;49.70;;;;;;4897148;29;20028;-83
2022/04/18 04:52:53;;;;;;;1.10;0.90;;;7.90;49.70;;;;;;4894404;29;20150;-82
2022/04/18 04:55:18;;;;;;;1.50;0.98;;;7.90;49.50;;;;;;4869855;29;20319;-82
2022/04/18 04:57:44;;;;;;;1.87;0.90;;;7.80;49.60;;;;;;4864759;29;20388;-82
2022/04/18 05:00:10;;;;;;;1.80;1.10;;;7.80;49.90;;;;;;4884729;29;20123;-83
2022/04/18 05:02:36;;;;;;;1.05;0.90;;;7.80;50.10;;;;;;4900033;29;20043;-83
2022/04/18 05:05:02;;;;;;;2.43;1.00;;;7.70;50.10;;;;;;4904473;29;20032;-83
2022/04/18 05:07:27;;;;;;;1.55;1.15;;;7.80;50.30;;;;;;4882652;29;20122;-82
2022/04/18 05:09:53;;;;;;;1.50;0.90;;;7.80;50.40;;;;;;4890071;29;20056;-83
2022/04/18 05:12:19;;;;;;;1.43;1.00;;;7.80;50.30;;;;;;4882632;29;20024;-82
2022/04/18 05:14:45;;;;;;;1.02;0.90;;;7.80;50.10;;;;;;4881909;29;20512;-82
2022/04/18 05:17:11;;;;;;;1.60;1.00;;;7.80;50.20;;;;;;4885208;29;20032;-82
2022/04/18 05:19:36;;;;;;;1.40;1.17;;;7.90;50.20;;;;;;4890582;29;20036;-82
2022/04/18 05:22:02;;;;;;;1.15;0.90;;;7.90;50.40;;;;;;4878909;29;20028;-82
2022/04/18 05:24:28;;;;;;;1.83;1.20;;;7.90;50.70;;;;;;4876373;29;20035;-83
2022/04/18 05:26:53;;;;;;;1.30;1.05;;;8.00;50.80;;;;;;4881327;29;20119;-82
2022/04/18 05:29:19;;;;;;;1.40;1.00;;;8.00;50.80;;;;;;4869443;29;20082;-82
2022/04/18 05:31:44;;;;;;;1.23;1.00;;;8.10;50.90;;;;;;4867997;29;20028;-82
2022/04/18 05:34:10;;;;;;;1.35;1.00;;;8.10;50.90;;;;;;4888594;29;20031;-83
2022/04/18 05:36:36;;;;;;;1.23;0.93;;;8.30;51.00;;;;;;4886290;29;20325;-82
2022/04/18 05:39:01;;;;;;;1.20;0.90;;;8.30;51.10;;;;;;4887539;29;20182;-83
2022/04/18 05:41:27;;;;;;;1.57;1.00;;;8.40;51.30;;;;;;4907331;29;20036;-82
2022/04/18 05:43:53;;;;;;;1.17;0.80;;;8.50;51.30;;;;;;4881511;29;20263;-82
2022/04/18 05:46:18;;;;;;;1.53;0.90;;;8.50;51.50;;;;;;4873767;29;20036;-82
2022/04/18 05:48:44;;;;;;;1.25;1.00;;;8.60;51.40;;;;;;4868097;29;20063;-82
2022/04/18 05:51:09;;;;;;;1.17;0.90;;;8.70;51.30;;;;;;4897612;29;20042;-82
2022/04/18 05:53:35;;;;;;;2.00;1.00;;;8.80;51.50;;;;;;4884715;29;20048;-82
2022/04/18 05:56:01;;;;;;;0.95;0.85;;;8.90;51.50;;;;;;4907787;29;20485;-82
2022/04/18 05:58:27;;;;;;;1.38;0.90;;;9.00;51.20;;;;;;4875064;29;20042;-82
2022/04/18 06:00:53;;;;;;;1.97;1.07;;;9.10;51.10;;;;;;4882187;29;21155;-82
2022/04/18 06:03:18;;;;;;;1.25;0.90;;;9.20;51.00;;;;;;4888965;29;20234;-82
2022/04/18 06:05:44;;;;;;;1.43;0.80;;;9.30;51.10;;;;;;4891437;29;20779;-82
2022/04/18 06:08:10;;;;;;;1.60;1.10;;;9.40;50.90;;;;;;4890510;29;20028;-83
2022/04/18 06:10:40;;;;;;;1.37;1.00;;;9.60;50.60;;;;;;4862073;29;20020;-83
2022/04/18 06:13:08;;;;;;;2.03;1.10;;;9.70;50.80;;;;;;4886837;29;20510;-82
2022/04/18 06:15:34;;;;;;;1.20;0.85;;;9.80;50.90;;;;;;4872898;29;20538;-82
2022/04/18 06:18:00;;;;;;;1.95;1.20;;;9.90;50.80;;;;;;4890351;29;20059;-82
2022/04/18 06:20:26;;;;;;;1.40;1.00;;;10.10;50.80;;;;;;4889106;29;20028;-82
2022/04/18 06:22:51;;;;;;;1.30;0.95;;;10.30;50.40;;;;;;4895290;29;20204;-82
2022/04/18 06:25:17;;;;;;;1.80;1.20;;;10.40;50.30;;;;;;4883288;29;20028;-82
2022/04/18 06:27:43;;;;;;;1.10;0.98;;;10.50;50.20;;;;;;4887367;29;20028;-81
2022/04/18 06:30:08;;;;;;;1.10;1.00;;;10.70;50.30;;;;;;4891927;29;20046;-82
2022/04/18 06:32:37;;;;;;;1.45;0.90;;;10.80;50.20;;;;;;4872223;29;20072;-82
2022/04/18 06:35:04;;;;;;;0.77;0.77;;;11.00;50.30;;;;;;4879418;29;20020;-83
2022/04/18 06:37:30;;;;;;;1.27;1.00;;;11.10;50.10;;;;;;4899365;29;20028;-83
2022/04/18 06:39:56;;;;;;;1.60;1.10;;;11.20;50.10;;;;;;4889054;29;20751;-83
2022/04/18 06:42:21;;;;;;;1.55;1.00;;;11.30;50.00;;;;;;4862957;29;20049;-82
2022/04/18 06:44:48;;;;;;;1.27;0.90;;;11.40;50.10;;;;;;4882211;29;20039;-82
2022/04/18 06:47:14;;;;;;;1.00;0.85;;;11.60;50.00;;;;;;4879353;29;20028;-82
2022/04/18 06:49:40;;;;;;;1.92;0.93;;;11.80;50.20;;;;;;4891109;29;20378;-83
2022/04/18 06:52:06;;;;;;;0.93;0.87;;;12.00;50.50;;;;;;4928446;29;20284;-83
2022/04/18 06:54:32;;;;;;;1.13;0.90;;;12.30;50.80;;;;;;4878319;29;20642;-83
2022/04/18 06:57:01;;;;;;;1.08;0.98;;;12.50;50.60;;;;;;4897527;29;20055;-83
2022/04/18 06:59:28;;;;;;;1.70;1.17;;;12.80;50.20;;;;;;4886177;29;20040;-83
2022/04/18 07:01:54;;;;;;;2.30;1.10;;;13.00;49.80;;;;;;4896336;29;20331;-83
2022/04/18 07:04:20;;;;;;;2.05;1.00;;;13.30;49.60;;;;;;4882603;29;20036;-83
2022/04/18 07:06:46;;;;;;;1.27;1.00;;;13.50;49.40;;;;;;4898951;29;20040;-84
2022/04/18 07:09:12;;;;;;;1.33;1.03;;;13.70;49.40;;;;;;4897400;29;20141;-84
2022/04/18 07:11:44;;;;;;;2.13;1.10;;;13.90;49.20;;;;;;4892543;29;20380;-84
2022/04/18 07:14:14;;;;;;;1.58;1.17;;;14.10;49.20;;;;;;4895999;29;20160;-85
2022/04/18 07:16:42;;;;;;;1.42;1.02;;;14.30;49.30;;;;;;4891335;29;20072;-83
2022/04/18 07:19:07;;;;;;;1.13;1.00;;;14.50;49.70;;;;;;4854403;29;20028;-83
2022/04/18 07:21:33;;;;;;;1.33;1.10;;;14.80;49.80;;;;;;4873559;29;20362;-84
2022/04/18 07:23:59;;;;;;;2.10;1.15;;;15.10;49.80;;;;;;4914814;29;20087;-85
2022/04/18 07:26:25;;;;;;;1.70;1.10;;;15.40;49.80;;;;;;4898658;29;20059;-83
2022/04/18 07:28:50;;;;;;;1.48;1.30;;;15.80;49.90;;;;;;4868802;29;20290;-84
2022/04/18 07:31:16;;;;;;;1.53;1.10;;;16.20;50.10;;;;;;4890220;29;20122;-83
2022/04/18 07:33:42;;;;;;;1.45;1.20;;;16.60;50.10;;;;;;4881003;29;20066;-83
2022/04/18 07:36:08;;;;;;;1.40;1.10;;;17.00;49.60;;;;;;4878414;29;20028;-84
2022/04/18 07:38:49;;;;;;;1.97;1.03;;;17.40;49.30;;;;;;4896669;29;20051;-84
2022/04/18 07:41:15;;;;;;;1.30;1.10;;;17.90;49.60;;;;;;4911970;29;20035;-84
2022/04/18 07:43:41;;;;;;;1.27;1.10;;;18.40;49.40;;;;;;4861482;29;20047;-83
2022/04/18 07:46:07;;;;;;;1.25;1.15;;;19.00;49.10;;;;;;4883634;29;20404;-83
2022/04/18 07:48:33;;;;;;;1.60;1.00;;;19.50;48.80;;;;;;4877274;29;20051;-83
2022/04/18 07:53:44;;;;;;;1.55;1.17;;;20.40;47.00;;;;;;4884845;29;20255;-82
2022/04/18 07:56:10;;;;;;;1.47;1.37;;;20.90;45.80;;;;;;4888646;29;20028;-83
2022/04/18 07:58:36;;;;;;;1.30;1.13;;;21.20;44.60;;;;;;4884887;29;20032;-82
2022/04/18 08:01:02;;;;;;;1.45;1.30;;;21.50;44.30;;;;;;4879057;29;20036;-83
2022/04/18 08:03:27;;;;;;;1.25;1.13;;;21.70;44.10;;;;;;4890897;29;20697;-85
2022/04/18 08:05:56;;;;;;;1.90;1.20;;;22.00;43.60;;;;;;4869450;29;20051;-83
2022/04/18 08:08:22;;;;;;;1.35;1.23;;;22.30;42.50;;;;;;4875614;29;20329;-84
2022/04/18 08:10:48;;;;;;;1.30;1.20;;;22.50;42.40;;;;;;4868569;29;20552;-84
2022/04/18 08:13:14;;;;;;;1.57;1.20;;;22.80;42.20;;;;;;4894683;29;20046;-84
2022/04/18 08:15:40;;;;;;;2.15;1.30;;;23.00;41.70;;;;;;4881380;29;20025;-83
2022/04/18 08:18:06;;;;;;;1.50;1.27;;;23.20;41.30;;;;;;4888000;29;20051;-85
2022/04/18 08:20:31;;;;;;;4.07;1.50;;;23.40;40.70;;;;;;4891858;29;20080;-84
2022/04/18 08:22:57;;;;;;;1.83;1.40;;;23.60;40.30;;;;;;4870660;29;20143;-84
2022/04/18 08:25:23;;;;;;;1.77;1.40;;;23.70;39.80;;;;;;4881734;29;20067;-83
2022/04/18 08:27:48;;;;;;;2.30;1.38;;;23.80;39.20;;;;;;4911705;29;20122;-84
2022/04/18 08:30:14;;;;;;;1.80;1.30;;;23.90;38.60;;;;;;4877415;29;20664;-85
2022/04/18 08:32:40;;;;;;;1.83;1.27;;;24.00;38.70;;;;;;4873433;29;20052;-84
2022/04/18 08:35:07;;;;;;;1.40;1.27;;;24.20;38.70;;;;;;4879907;29;20039;-85
2022/04/18 08:37:34;;;;;;;1.33;1.20;;;24.30;38.20;;;;;;4886820;29;20039;-83
2022/04/18 08:40:01;;;;;;;1.60;1.25;;;24.50;38.40;;;;;;4897015;29;20199;-83
2022/04/18 08:42:33;;;;;;;1.63;1.10;;;24.70;38.40;;;;;;4889851;29;20044;-84
2022/04/18 08:45:02;;;;;;;1.30;1.20;;;25.00;37.90;;;;;;4889197;29;20478;-84
2022/04/18 08:52:58;;;;;;;1.52;1.20;;;25.90;37.10;;;;;;4898012;29;20569;-85
2022/04/18 08:55:24;;;;;;;1.58;1.13;;;26.20;36.40;;;;;;4892422;29;20024;-84
2022/04/18 08:57:49;;;;;;;1.13;1.02;;;26.30;35.50;;;;;;4894207;29;20400;-85
2022/04/18 09:00:15;;;;;;;1.33;1.23;;;26.40;34.70;;;;;;4870180;29;20123;-84
2022/04/18 09:02:41;;;;;;;1.45;1.35;;;26.50;34.20;;;;;;4881626;29;20033;-84
2022/04/18 09:05:11;;;;;;;2.53;1.13;;;26.40;33.50;;;;;;4891705;29;20111;-85
2022/04/18 09:07:40;;;;;;;1.20;1.10;;;26.40;32.10;;;;;;4871613;29;20063;-84
2022/04/18 09:10:07;;;;;;;1.75;1.20;;;26.30;32.80;;;;;;4879742;29;20082;-84
2022/04/18 09:12:33;;;;;;;1.23;1.13;;;26.30;33.00;;;;;;4900195;29;20039;-84
2022/04/18 09:14:59;;;;;;;1.57;1.00;;;26.40;33.40;;;;;;4897858;29;20222;-83
2022/04/18 09:17:32;;;;;;;1.30;1.13;;;26.40;33.40;;;;;;4877502;29;20024;-84
2022/04/18 09:20:13;;;;;;;1.30;1.15;;;26.50;32.40;;;;;;4907880;29;20123;-84
2022/04/18 09:22:44;;;;;;;2.63;1.10;;;26.70;31.30;;;;;;4903044;29;20035;-84
2022/04/18 09:25:18;;;;;;;2.00;1.30;;;26.90;30.60;;;;;;4902217;29;20140;-85
2022/04/18 09:27:57;;;;;;;1.40;1.30;;;27.00;30.80;;;;;;4878311;29;20673;-84
2022/04/18 09:30:24;;;;;;;1.30;1.20;;;27.20;29.40;;;;;;4898648;29;20028;-84
2022/04/18 09:33:07;;;;;;;1.40;1.08;;;27.30;30.60;;;;;;4908376;29;20032;-84
2022/04/18 09:35:34;;;;;;;1.45;1.05;;;27.40;28.50;;;;;;4909148;29;20040;-84
2022/04/18 09:38:02;;;;;;;1.20;1.10;;;27.50;30.30;;;;;;4908283;29;20102;-84
2022/04/18 09:40:31;;;;;;;1.20;1.03;;;27.70;30.30;;;;;;4893287;29;20461;-84
2022/04/18 09:42:57;;;;;;;1.20;1.08;;;27.80;29.90;;;;;;4889634;29;20302;-83
2022/04/18 09:45:23;;;;;;;1.33;1.10;;;27.90;30.00;;;;;;4889883;29;20028;-83
2022/04/18 09:48:02;;;;;;;1.10;1.00;;;28.10;29.70;;;;;;4897121;29;20032;-84
2022/04/18 09:53:19;;;;;;;1.80;1.40;;;28.40;29.50;;;;;;4899112;29;20048;-83
2022/04/18 09:55:47;;;;;;;1.73;1.30;;;28.50;27.60;;;;;;4878047;29;20036;-83
2022/04/18 09:58:13;;;;;;;1.48;1.20;;;28.60;28.60;;;;;;4886170;29;20042;-84
2022/04/18 10:00:40;;;;;;;1.73;1.20;;;28.70;28.50;;;;;;4894258;29;20036;-84
2022/04/18 10:03:06;;;;;;;1.63;1.40;;;28.80;28.30;;;;;;4898367;29;20095;-84
2022/04/18 10:05:33;;;;;;;1.40;1.30;;;28.80;28.20;;;;;;4883550;29;20035;-84
2022/04/18 10:08:03;;;;;;;1.45;1.10;;;28.90;28.40;;;;;;4900013;29;20024;-84
2022/04/18 10:10:37;;;;;;;1.38;1.20;;;29.10;28.30;;;;;;4880173;29;20045;-84
2022/04/18 10:13:03;;;;;;;2.30;1.30;;;29.20;28.10;;;;;;4865526;29;21229;-84
2022/04/18 10:15:30;;;;;;;1.20;1.10;;;29.30;27.70;;;;;;4895926;29;20028;-83
2022/04/18 10:18:02;;;;;;;1.30;1.20;;;29.30;27.30;;;;;;4869318;29;20445;-84
2022/04/18 10:20:45;;;;;;;1.90;1.30;;;29.20;26.30;;;;;;4885040;29;20039;-84
2022/04/18 10:23:39;;;;;;;1.30;1.20;;;29.20;26.50;;;;;;4888266;29;20044;-85
2022/04/18 10:26:23;;;;;;;1.30;1.20;;;29.20;26.50;;;;;;4880070;29;20393;-84
2022/04/18 10:28:52;;;;;;;1.60;1.20;;;29.20;26.50;;;;;;4894489;29;20602;-84
2022/04/18 10:31:23;;;;;;;1.57;1.30;;;29.40;27.20;;;;;;4909663;29;20433;-84
2022/04/18 10:33:49;;;;;;;1.45;1.33;;;29.50;27.50;;;;;;4894446;29;20168;-84
2022/04/18 10:36:28;;;;;;;1.63;1.40;;;29.80;27.40;;;;;;4898649;29;20095;-84
2022/04/18 10:38:56;;;;;;;1.67;1.20;;;30.00;26.40;;;;;;4902742;29;20659;-84
2022/04/18 10:41:36;;;;;;;1.48;1.30;;;30.20;27.00;;;;;;4877305;29;20603;-84
2022/04/18 10:44:13;;;;;;;1.90;1.70;;;30.50;26.10;;;;;;4869696;29;20466;-84
2022/04/18 10:46:49;;;;;;;1.85;1.48;;;30.70;27.10;;;;;;4877693;29;20079;-84
2022/04/18 10:49:18;;;;;;;1.40;1.30;;;31.00;25.50;;;;;;4896432;29;20032;-84
2022/04/18 10:51:50;;;;;;;1.52;1.42;;;31.20;26.20;;;;;;4890520;29;21033;-84
2022/04/18 10:54:17;;;;;;;2.33;1.60;;;31.40;26.00;;;;;;4880334;29;20039;-85
2022/04/18 10:56:57;;;;;;;1.70;1.60;;;31.60;25.80;;;;;;4877151;29;20040;-84
2022/04/18 10:59:30;;;;;;;1.50;1.23;;;31.70;25.00;;;;;;4875507;29;20612;-82
2022/04/18 11:02:01;;;;;;;1.52;1.42;;;31.90;25.10;;;;;;4891184;29;20032;-81
2022/04/18 11:04:33;;;;;;;1.80;1.52;;;32.10;25.00;;;;;;4898812;29;20043;-82
2022/04/18 11:07:06;;;;;;;1.90;1.58;;;32.20;25.00;;;;;;4883023;29;20028;-81
2022/04/18 11:09:52;;;;;;;1.50;1.40;;;32.30;24.10;;;;;;4901747;29;20131;-82
2022/04/18 11:12:20;;;;;;;1.90;1.67;;;32.40;23.90;;;;;;4872824;29;20283;-82
2022/04/18 11:15:02;;;;;;;1.52;1.40;;;32.40;24.40;;;;;;4888534;29;20038;-82
2022/04/18 11:17:32;;;;;;;2.00;1.35;;;32.40;24.30;;;;;;4902154;29;20030;-81
2022/04/18 11:20:36;;;;;;;1.40;1.30;;;32.60;24.40;;;;;;4904635;29;20066;-81
2022/04/18 11:23:22;;;;;;;1.67;1.47;;;32.80;23.90;;;;;;4883035;29;20083;-81
2022/04/18 11:26:01;;;;;;;1.35;1.23;;;32.90;22.60;;;;;;4891010;29;20032;-82
2022/04/18 11:28:39;;;;;;;2.33;1.60;;;33.00;23.30;;;;;;4888642;29;20549;-82
2022/04/18 11:31:19;;;;;;;1.83;1.42;;;33.10;22.10;;;;;;4872402;29;20464;-81
2022/04/18 11:33:45;;;;;;;1.80;1.40;;;33.20;22.40;;;;;;4908556;29;20163;-82
2022/04/18 11:36:13;;;;;;;2.17;1.50;;;33.20;23.30;;;;;;4887129;29;20424;-81
2022/04/18 11:38:38;;;;;;;2.55;1.60;;;33.30;23.00;;;;;;4882122;29;20250;-82
2022/04/18 11:41:14;;;;;;;1.60;1.50;;;33.40;23.10;;;;;;4864065;29;20016;-82
2022/04/18 11:43:40;;;;;;;2.30;1.50;;;33.50;22.40;;;;;;4892830;29;20199;-82
2022/04/18 11:46:09;;;;;;;1.33;1.20;;;33.60;23.00;;;;;;4858523;29;20032;-81
2022/04/18 11:48:36;;;;;;;1.20;1.10;;;33.90;22.80;;;;;;4879566;29;20031;-82
2022/04/18 11:51:02;;;;;;;1.30;1.20;;;34.10;22.60;;;;;;4900765;29;20041;-82
2022/04/18 11:53:33;;;;;;;1.52;1.40;;;34.20;23.30;;;;;;4881842;29;20032;-81
2022/04/18 11:56:06;;;;;;;1.58;1.42;;;34.40;21.80;;;;;;4888175;29;20040;-82
2022/04/18 11:58:36;;;;;;;1.52;1.42;;;34.40;21.60;;;;;;4896535;29;20035;-82
2022/04/18 12:06:46;;;;;;;2.35;1.40;;;34.70;21.90;;;;;;4904758;29;20044;-82
2022/04/18 12:09:13;;;;;;;1.77;1.30;;;34.70;22.10;;;;;;4887101;29;20115;-81
2022/04/18 12:11:40;;;;;;;1.38;1.25;;;34.90;21.60;;;;;;4892578;29;20040;-82
2022/04/18 12:14:05;;;;;;;1.40;1.30;;;35.00;21.70;;;;;;4867435;29;20386;-82
2022/04/18 12:16:36;;;;;;;1.50;1.40;;;35.10;21.50;;;;;;4889645;29;20031;-82
2022/04/18 12:19:02;;;;;;;1.77;1.33;;;35.20;21.30;;;;;;4881202;29;20036;-81
2022/04/18 12:21:28;;;;;;;1.30;1.20;;;35.20;21.30;;;;;;4896942;29;20388;-82
2022/04/18 12:23:56;;;;;;;1.57;1.33;;;35.30;21.10;;;;;;4894981;29;20040;-81
2022/04/18 12:26:34;;;;;;;2.13;1.55;;;35.30;21.00;;;;;;4916671;28;20070;-81
2022/04/18 12:29:05;;;;;;;1.40;1.30;;;35.40;20.10;;;;;;4903848;29;20035;-82
2022/04/18 12:31:31;;;;;;;1.50;1.40;;;35.40;20.90;;;;;;4885191;29;20044;-82
2022/04/18 12:33:57;;;;;;;3.30;1.30;;;35.40;20.80;;;;;;4880594;29;20041;-81
2022/04/18 12:36:23;;;;;;;1.70;1.40;;;35.50;21.10;;;;;;4889081;29;20047;-82
2022/04/18 12:38:50;;;;;;;3.30;1.30;;;35.60;21.00;;;;;;4909296;29;20129;-81
2022/04/18 12:41:25;;;;;;;1.30;1.20;;;35.70;20.50;;;;;;4878326;29;20042;-82
2022/04/18 12:43:51;;;;;;;1.25;1.15;;;35.80;19.90;;;;;;4902546;29;20043;-81
2022/04/18 12:46:17;;;;;;;1.30;1.20;;;35.70;20.00;;;;;;4874389;29;20174;-81
2022/04/18 12:48:49;;;;;;;1.60;1.30;;;35.60;19.60;;;;;;4875202;29;20594;-81
2022/04/18 12:51:15;;;;;;;1.73;1.20;;;35.50;19.70;;;;;;4892103;29;20027;-82
2022/04/18 12:53:49;;;;;;;1.33;1.17;;;35.30;19.50;;;;;;4885410;29;20032;-81
2022/04/18 12:56:20;;;;;;;1.30;1.20;;;35.20;18.80;;;;;;4890833;29;20043;-82
2022/04/18 12:58:48;;;;;;;1.50;1.20;;;35.00;19.20;;;;;;4906001;29;20032;-82
2022/04/18 13:01:25;;;;;;;1.38;1.02;;;34.90;19.20;;;;;;4909158;28;20147;-81
2022/04/18 13:03:52;;;;;;;1.40;1.30;;;34.80;19.20;;;;;;4905512;29;20043;-82
2022/04/18 13:06:30;;;;;;;1.30;1.10;;;34.80;19.50;;;;;;4881539;29;20028;-81
2022/04/18 13:09:09;;;;;;;1.40;1.30;;;34.90;18.90;;;;;;4885175;29;20373;-81
2022/04/18 13:11:45;;;;;;;1.38;1.13;;;34.80;18.80;;;;;;4877221;29;20068;-81
2022/04/18 13:14:14;;;;;;;1.27;1.10;;;34.70;18.70;;;;;;4878764;29;20429;-81
2022/04/18 13:16:42;;;;;;;1.20;1.10;;;34.60;18.90;;;;;;4870163;29;20118;-81
2022/04/18 13:19:09;;;;;;;1.20;1.10;;;34.50;19.20;;;;;;4901084;29;20126;-81